Time;durP1;ratioP1;P1;durP2;ratioP2;P2;SDS_P1;SDS_P2;PMS_P1;PMS_P2;Temp;Humidity;BMP_temperature;BMP_pressure;BME280_temperature;BME280_humidity;BME280_pressure;Samples;Min_cycle;Max_cycle;Signal;HPM_P1;HPM_P2
2021/07/24 00:00:37;;;;;;;11.45;10.23;;;14.20;99.90;;;;;;5110791;28;20378;-86
2021/07/24 00:03:03;;;;;;;12.60;10.50;;;14.20;99.90;;;;;;5111104;28;20367;-88
2021/07/24 00:05:29;;;;;;;10.52;9.48;;;14.20;99.90;;;;;;5111288;28;20884;-84
2021/07/24 00:07:54;;;;;;;12.07;10.50;;;14.10;99.90;;;;;;5110454;28;20474;-85
2021/07/24 00:10:20;;;;;;;11.80;10.17;;;14.20;99.90;;;;;;5110345;28;20390;-88
2021/07/24 00:12:50;;;;;;;11.80;10.35;;;14.20;99.90;;;;;;5110115;28;20793;-85
2021/07/24 00:15:15;;;;;;;12.23;10.57;;;14.20;99.90;;;;;;5110283;28;20875;-86
2021/07/24 00:17:41;;;;;;;12.10;10.57;;;14.10;99.90;;;;;;5109946;28;20382;-88
2021/07/24 00:20:07;;;;;;;11.85;10.52;;;14.10;99.90;;;;;;5111807;27;20370;-86
2021/07/24 00:22:33;;;;;;;13.45;11.15;;;14.00;99.90;;;;;;5111740;28;20367;-86
2021/07/24 00:24:58;;;;;;;10.85;9.75;;;14.00;99.90;;;;;;5110726;28;20409;-85
2021/07/24 00:27:24;;;;;;;14.13;11.27;;;13.90;99.90;;;;;;5109717;28;20410;-86
2021/07/24 00:29:54;;;;;;;13.20;11.40;;;13.90;99.90;;;;;;5111195;28;21016;-84
2021/07/24 00:32:20;;;;;;;12.40;11.10;;;13.90;99.90;;;;;;5109299;28;20382;-84
2021/07/24 00:34:45;;;;;;;12.87;11.33;;;13.80;99.90;;;;;;5109537;28;20740;-85
2021/07/24 00:37:11;;;;;;;15.80;11.83;;;13.80;99.90;;;;;;5109579;28;20963;-87
2021/07/24 00:39:37;;;;;;;14.77;11.90;;;13.80;99.90;;;;;;5106269;28;20379;-85
2021/07/24 00:42:17;;;;;;;13.65;11.43;;;13.80;99.90;;;;;;5109302;28;20386;-83
2021/07/24 00:44:45;;;;;;;12.27;11.00;;;13.70;99.90;;;;;;5107554;28;20529;-84
2021/07/24 00:47:26;;;;;;;12.52;10.80;;;13.80;99.90;;;;;;5108996;28;20873;-84
2021/07/24 00:49:53;;;;;;;12.18;10.88;;;13.70;99.90;;;;;;5108131;28;20524;-85
2021/07/24 00:52:19;;;;;;;12.60;11.30;;;13.70;99.90;;;;;;5107838;28;20404;-84
2021/07/24 00:54:44;;;;;;;13.63;11.07;;;13.70;99.90;;;;;;5109269;28;20379;-87
2021/07/24 00:57:15;;;;;;;12.10;10.90;;;13.80;99.90;;;;;;5109946;28;21009;-87
2021/07/24 00:59:41;;;;;;;13.68;11.60;;;13.80;99.90;;;;;;5110374;28;20374;-86
2021/07/24 01:02:06;;;;;;;12.77;11.52;;;13.80;99.90;;;;;;5109917;28;20454;-84
2021/07/24 01:04:32;;;;;;;13.37;11.20;;;13.70;99.90;;;;;;5110944;28;20378;-86
2021/07/24 01:07:02;;;;;;;13.88;11.88;;;13.70;99.90;;;;;;5109274;28;20374;-86
2021/07/24 01:09:28;;;;;;;12.15;10.95;;;13.60;99.90;;;;;;5109266;28;20485;-86
2021/07/24 01:12:00;;;;;;;11.57;10.38;;;13.60;99.90;;;;;;5109382;28;20466;-84
2021/07/24 01:14:26;;;;;;;12.75;11.45;;;13.60;99.90;;;;;;5109656;28;20850;-87
2021/07/24 01:16:52;;;;;;;13.88;11.45;;;13.60;99.90;;;;;;5109522;28;20370;-85
2021/07/24 01:19:17;;;;;;;12.50;10.93;;;13.60;99.90;;;;;;5109421;28;20423;-87
2021/07/24 01:21:44;;;;;;;12.57;10.53;;;13.60;99.90;;;;;;5110703;28;20496;-85
2021/07/24 01:24:09;;;;;;;12.52;10.90;;;13.50;99.90;;;;;;5109303;28;20383;-87
2021/07/24 01:26:35;;;;;;;12.63;11.23;;;13.50;99.90;;;;;;5109278;28;20386;-86
2021/07/24 01:29:01;;;;;;;13.68;12.27;;;13.50;99.90;;;;;;5110568;28;20395;-84
2021/07/24 01:31:27;;;;;;;13.63;11.60;;;13.60;99.90;;;;;;5109585;28;20895;-85
2021/07/24 01:33:53;;;;;;;13.17;11.87;;;13.60;99.90;;;;;;5110907;28;20374;-85
2021/07/24 01:36:18;;;;;;;13.43;11.57;;;13.50;99.90;;;;;;5114453;28;20470;-86
2021/07/24 01:38:45;;;;;;;14.00;12.03;;;13.40;99.90;;;;;;5112598;28;20371;-85
2021/07/24 01:41:12;;;;;;;13.68;11.68;;;13.40;99.90;;;;;;5114270;28;21185;-85
2021/07/24 01:43:38;;;;;;;13.90;12.50;;;13.40;99.90;;;;;;5116273;28;20366;-86
2021/07/24 01:46:04;;;;;;;13.57;11.85;;;13.40;99.90;;;;;;5113291;28;20397;-87
2021/07/24 01:48:36;;;;;;;13.10;11.65;;;13.40;99.90;;;;;;5112837;28;20394;-85
2021/07/24 01:53:50;;;;;;;13.35;12.05;;;13.40;99.90;;;;;;5114368;28;20370;-84
2021/07/24 01:56:19;;;;;;;13.65;12.35;;;13.40;99.90;;;;;;5113143;28;20406;-86
2021/07/24 01:58:45;;;;;;;13.23;11.88;;;13.30;99.90;;;;;;5112669;28;20393;-84
2021/07/24 02:01:12;;;;;;;14.13;11.63;;;13.40;99.90;;;;;;5113873;28;20382;-85
2021/07/24 02:03:45;;;;;;;13.38;12.07;;;13.40;99.90;;;;;;5112811;28;20732;-84
2021/07/24 02:06:12;;;;;;;14.73;12.52;;;13.40;99.90;;;;;;5112564;28;20366;-86
2021/07/24 02:08:43;;;;;;;13.77;12.48;;;13.30;99.90;;;;;;5112182;28;20401;-85
2021/07/24 02:11:09;;;;;;;15.55;13.25;;;13.30;99.90;;;;;;5113842;28;20412;-84
2021/07/24 02:13:34;;;;;;;15.85;13.60;;;13.20;99.90;;;;;;5112611;28;20371;-85
2021/07/24 02:16:00;;;;;;;14.47;12.37;;;13.20;99.90;;;;;;5112464;28;20398;-85
2021/07/24 02:18:27;;;;;;;14.20;12.70;;;13.20;99.90;;;;;;5113899;28;20390;-87
2021/07/24 02:20:53;;;;;;;13.65;12.25;;;13.20;99.90;;;;;;5112893;28;20399;-85
2021/07/24 02:23:19;;;;;;;16.27;12.57;;;13.10;99.90;;;;;;5113914;28;20379;-84
2021/07/24 02:25:45;;;;;;;13.00;11.70;;;13.20;99.90;;;;;;5113697;28;20375;-85
2021/07/24 02:28:11;;;;;;;14.63;12.52;;;13.20;99.90;;;;;;5112289;28;20395;-86
2021/07/24 02:30:37;;;;;;;13.10;11.80;;;13.20;99.90;;;;;;5112499;28;20374;-84
2021/07/24 02:33:03;;;;;;;16.00;12.95;;;13.20;99.90;;;;;;5112199;28;20729;-84
2021/07/24 02:35:29;;;;;;;14.00;12.70;;;13.20;99.90;;;;;;5112087;28;20374;-84
2021/07/24 02:37:54;;;;;;;13.73;12.25;;;13.20;99.90;;;;;;5112136;28;20432;-85
2021/07/24 02:40:21;;;;;;;14.40;12.93;;;13.20;99.90;;;;;;5113258;28;20363;-85
2021/07/24 02:42:47;;;;;;;14.88;12.23;;;13.30;99.90;;;;;;5113802;28;20914;-85
2021/07/24 02:45:13;;;;;;;13.10;11.80;;;13.30;99.90;;;;;;5112258;28;20427;-86
2021/07/24 02:47:39;;;;;;;13.70;12.10;;;13.30;99.90;;;;;;5113801;28;20370;-87
2021/07/24 02:50:05;;;;;;;14.70;13.20;;;13.20;99.90;;;;;;5113215;28;20910;-84
2021/07/24 02:52:31;;;;;;;14.55;12.48;;;13.20;99.90;;;;;;5111289;28;20553;-85
2021/07/24 02:54:56;;;;;;;14.05;12.02;;;13.20;99.90;;;;;;5112055;28;20379;-84
2021/07/24 02:57:22;;;;;;;13.23;11.90;;;13.20;99.90;;;;;;5112191;28;20430;-86
2021/07/24 02:59:48;;;;;;;12.97;11.77;;;13.10;99.90;;;;;;5113041;27;20397;-88
2021/07/24 03:02:17;;;;;;;12.88;11.68;;;13.10;99.90;;;;;;5111773;28;20473;-87
2021/07/24 03:04:43;;;;;;;14.50;12.77;;;13.10;99.90;;;;;;5112195;28;20400;-86
2021/07/24 03:07:09;;;;;;;14.55;12.00;;;13.10;99.90;;;;;;5111656;28;20366;-84
2021/07/24 03:09:35;;;;;;;14.15;12.75;;;13.10;99.90;;;;;;5112686;28;20394;-84
2021/07/24 03:12:00;;;;;;;14.00;12.70;;;13.20;99.90;;;;;;5111663;28;20971;-84
2021/07/24 03:14:26;;;;;;;14.67;13.27;;;13.20;99.90;;;;;;5111769;28;20416;-87
2021/07/24 03:16:52;;;;;;;12.98;11.80;;;13.20;99.90;;;;;;5112802;27;20910;-84
2021/07/24 03:19:18;;;;;;;14.52;13.13;;;13.30;99.90;;;;;;5111372;28;20429;-87
2021/07/24 03:21:43;;;;;;;13.93;12.70;;;13.40;99.90;;;;;;5111505;28;20771;-84
2021/07/24 03:24:09;;;;;;;14.10;11.85;;;13.50;99.90;;;;;;5111617;28;20378;-87
2021/07/24 03:26:34;;;;;;;13.03;11.70;;;13.50;99.90;;;;;;5111414;28;20815;-86
2021/07/24 03:29:00;;;;;;;13.20;11.93;;;13.60;99.90;;;;;;5111084;28;20394;-87
2021/07/24 03:31:26;;;;;;;14.13;12.63;;;13.60;99.90;;;;;;5111633;28;20741;-84
2021/07/24 03:33:51;;;;;;;15.20;12.93;;;13.60;99.90;;;;;;5111391;28;20382;-85
2021/07/24 03:36:17;;;;;;;13.75;12.45;;;13.60;99.90;;;;;;5112339;28;20857;-87
2021/07/24 03:38:43;;;;;;;14.57;12.53;;;13.60;99.90;;;;;;5111275;28;20379;-85
2021/07/24 03:41:09;;;;;;;13.75;12.23;;;13.60;99.90;;;;;;5111246;28;20829;-86
2021/07/24 03:43:34;;;;;;;14.00;12.53;;;13.60;99.90;;;;;;5111273;28;20394;-84
2021/07/24 03:46:00;;;;;;;12.97;11.67;;;13.70;99.90;;;;;;5111250;28;20375;-87
2021/07/24 03:48:26;;;;;;;12.45;11.35;;;13.70;99.90;;;;;;5111184;28;20756;-86
2021/07/24 03:50:52;;;;;;;12.75;11.55;;;13.90;99.90;;;;;;5110922;28;20383;-86
2021/07/24 03:53:17;;;;;;;13.80;12.50;;;13.90;99.90;;;;;;5111008;28;20709;-84
2021/07/24 03:55:43;;;;;;;12.10;11.00;;;14.00;99.90;;;;;;5111204;28;20382;-86
2021/07/24 03:58:08;;;;;;;12.43;11.27;;;14.00;99.90;;;;;;5110514;28;20435;-84
2021/07/24 04:00:39;;;;;;;13.75;12.15;;;14.10;99.90;;;;;;5112413;28;20453;-87
2021/07/24 04:03:05;;;;;;;12.73;11.47;;;14.10;99.90;;;;;;5110059;28;20412;-86
2021/07/24 04:05:34;;;;;;;12.25;11.05;;;14.10;99.90;;;;;;5110762;28;20461;-86
2021/07/24 04:08:00;;;;;;;12.25;11.07;;;14.20;99.90;;;;;;5110323;28;20402;-88
2021/07/24 04:10:26;;;;;;;12.80;11.45;;;14.30;99.90;;;;;;5110874;28;20409;-85
2021/07/24 04:12:53;;;;;;;12.83;11.03;;;14.40;99.90;;;;;;5111895;28;20856;-87
2021/07/24 04:15:20;;;;;;;11.90;10.70;;;14.40;99.90;;;;;;5110237;28;20411;-87
2021/07/24 04:17:46;;;;;;;12.05;10.85;;;14.50;99.90;;;;;;5110232;28;20366;-84
2021/07/24 04:20:12;;;;;;;12.77;11.57;;;14.60;99.90;;;;;;5110207;28;20385;-85
2021/07/24 04:22:37;;;;;;;12.85;11.65;;;14.70;99.90;;;;;;5110282;28;20833;-87
2021/07/24 04:25:03;;;;;;;13.15;11.52;;;14.70;99.90;;;;;;5110442;28;20466;-85
2021/07/24 04:27:29;;;;;;;12.23;11.13;;;14.80;99.90;;;;;;5110240;28;20915;-84
2021/07/24 04:29:57;;;;;;;13.57;11.60;;;14.90;99.90;;;;;;5110436;28;20489;-86
2021/07/24 04:32:23;;;;;;;12.10;10.88;;;14.90;99.90;;;;;;5110398;28;20473;-84
2021/07/24 04:34:48;;;;;;;14.13;11.97;;;15.00;99.90;;;;;;5110427;28;20378;-84
2021/07/24 04:37:14;;;;;;;12.65;11.45;;;15.10;99.90;;;;;;5110177;28;20393;-84
2021/07/24 04:39:39;;;;;;;12.70;11.43;;;15.20;99.90;;;;;;5111200;27;20488;-85
2021/07/24 04:42:05;;;;;;;12.43;11.13;;;15.30;99.90;;;;;;5111243;28;20436;-88
2021/07/24 04:44:31;;;;;;;19.50;12.43;;;15.40;99.90;;;;;;5111366;28;20375;-87
2021/07/24 04:46:56;;;;;;;17.40;11.45;;;15.60;99.90;;;;;;5110749;28;20369;-84
2021/07/24 04:49:22;;;;;;;17.93;11.77;;;15.80;99.90;;;;;;5109702;28;20438;-84
2021/07/24 04:51:48;;;;;;;25.85;12.68;;;16.00;99.90;;;;;;5109824;28;20401;-86
2021/07/24 04:54:14;;;;;;;30.47;12.53;;;16.10;99.90;;;;;;5109416;28;20371;-83
2021/07/24 04:56:40;;;;;;;28.52;11.77;;;16.30;99.90;;;;;;5109431;28;20375;-84
2021/07/24 04:59:06;;;;;;;36.00;12.40;;;16.40;99.90;;;;;;5110509;28;20385;-85
2021/07/24 05:01:33;;;;;;;22.77;11.73;;;16.60;99.90;;;;;;5109568;28;20779;-85
2021/07/24 05:04:00;;;;;;;29.45;11.65;;;16.80;99.90;;;;;;5111232;28;20374;-86
2021/07/24 05:06:26;;;;;;;20.33;12.00;;;16.90;99.90;;;;;;5111220;28;20425;-86
2021/07/24 05:08:51;;;;;;;17.75;11.07;;;17.00;99.90;;;;;;5109440;28;20531;-86
2021/07/24 05:11:17;;;;;;;17.15;12.18;;;17.20;99.90;;;;;;5109784;28;20386;-84
2021/07/24 05:13:44;;;;;;;23.10;13.87;;;17.40;99.90;;;;;;5110816;28;20924;-84
2021/07/24 05:16:10;;;;;;;59.42;15.73;;;17.50;99.90;;;;;;5114768;28;20891;-85
2021/07/24 05:18:35;;;;;;;81.23;18.00;;;17.60;99.90;;;;;;5113797;28;20367;-87
2021/07/24 05:21:01;;;;;;;70.70;15.60;;;17.70;99.90;;;;;;5113786;28;20441;-89
2021/07/24 05:23:29;;;;;;;25.55;13.73;;;17.90;99.90;;;;;;5114089;28;20440;-85
2021/07/24 05:25:55;;;;;;;22.38;13.32;;;18.10;99.90;;;;;;5114730;28;20476;-88
2021/07/24 05:28:20;;;;;;;17.30;12.97;;;18.30;99.90;;;;;;5119464;28;20406;-84
2021/07/24 05:30:46;;;;;;;15.52;13.55;;;18.60;99.90;;;;;;5119409;28;20377;-87
2021/07/24 05:33:11;;;;;;;16.13;13.30;;;18.80;99.90;;;;;;5117588;28;20729;-89
2021/07/24 05:35:40;;;;;;;15.55;13.35;;;19.00;99.90;;;;;;5115386;28;20367;-90
2021/07/24 05:38:05;;;;;;;16.55;13.55;;;19.20;99.90;;;;;;5114390;28;20403;-88
2021/07/24 05:40:31;;;;;;;15.23;13.65;;;19.30;99.90;;;;;;5115477;28;20402;-89
2021/07/24 05:43:01;;;;;;;28.33;14.83;;;19.40;99.90;;;;;;5113641;28;20474;-89
2021/07/24 05:45:26;;;;;;;16.58;14.27;;;19.60;99.90;;;;;;5117245;28;20382;-85
2021/07/24 05:48:04;;;;;;;15.52;13.57;;;19.60;99.90;;;;;;5113812;28;20371;-89
2021/07/24 05:50:29;;;;;;;15.40;13.80;;;19.80;99.90;;;;;;5113392;28;20382;-88
2021/07/24 05:52:55;;;;;;;15.23;13.70;;;19.90;99.90;;;;;;5113319;28;20375;-88
2021/07/24 05:55:20;;;;;;;27.25;14.55;;;20.10;99.90;;;;;;5113527;28;20987;-88
2021/07/24 05:57:46;;;;;;;20.17;14.17;;;20.20;99.90;;;;;;5113618;28;20355;-90
2021/07/24 06:00:12;;;;;;;19.35;15.05;;;20.20;99.90;;;;;;5113576;28;20945;-88
2021/07/24 06:02:37;;;;;;;16.30;14.03;;;20.40;99.90;;;;;;5113339;28;20379;-90
2021/07/24 06:05:04;;;;;;;17.15;14.27;;;20.60;99.90;;;;;;5113541;28;20383;-89
2021/07/24 06:07:31;;;;;;;17.05;13.85;;;20.70;99.90;;;;;;5112886;28;20367;-89
2021/07/24 06:09:56;;;;;;;16.13;14.10;;;20.70;99.90;;;;;;5113288;28;20395;-88
2021/07/24 06:12:22;;;;;;;19.00;14.53;;;20.80;99.90;;;;;;5113048;28;20462;-88
2021/07/24 06:14:47;;;;;;;19.73;13.93;;;21.00;99.90;;;;;;5112755;28;20371;-85
2021/07/24 06:17:13;;;;;;;15.87;13.90;;;21.10;99.90;;;;;;5114418;28;20868;-89
2021/07/24 06:19:39;;;;;;;14.90;13.30;;;21.20;99.90;;;;;;5113251;28;20370;-89
2021/07/24 06:22:05;;;;;;;16.60;13.55;;;21.40;99.90;;;;;;5113314;28;20375;-87
2021/07/24 06:24:34;;;;;;;15.27;13.68;;;21.70;99.90;;;;;;5114474;28;20464;-87
2021/07/24 06:27:06;;;;;;;16.88;13.63;;;21.80;99.90;;;;;;5112732;28;20557;-90
2021/07/24 06:29:31;;;;;;;16.75;14.45;;;22.00;99.90;;;;;;5112848;28;20858;-90
2021/07/24 06:31:57;;;;;;;16.63;14.65;;;22.10;99.90;;;;;;5112771;28;20454;-89
2021/07/24 06:34:22;;;;;;;16.58;14.57;;;22.30;99.90;;;;;;5113140;28;20375;-86
2021/07/24 06:36:48;;;;;;;15.93;14.33;;;22.60;99.90;;;;;;5112656;28;20375;-87
2021/07/24 06:39:14;;;;;;;15.68;14.02;;;22.90;99.90;;;;;;5113124;28;20880;-86
2021/07/24 06:41:41;;;;;;;15.93;13.70;;;23.20;99.90;;;;;;5112824;28;20375;-88
2021/07/24 06:44:12;;;;;;;30.10;14.37;;;23.60;99.90;;;;;;5112267;28;20371;-85
2021/07/24 06:46:37;;;;;;;21.35;13.05;;;24.00;99.90;;;;;;5112416;28;20386;-84
2021/07/24 06:49:05;;;;;;;17.93;13.90;;;24.30;99.90;;;;;;5112302;28;20399;-87
2021/07/24 06:51:32;;;;;;;14.80;13.25;;;24.60;99.90;;;;;;5113656;27;20379;-86
2021/07/24 06:53:58;;;;;;;18.27;14.30;;;24.90;99.90;;;;;;5114160;28;20461;-88
2021/07/24 06:56:23;;;;;;;15.97;13.93;;;25.20;99.90;;;;;;5113635;28;20376;-85
2021/07/24 06:58:49;;;;;;;21.23;14.48;;;25.60;99.90;;;;;;5112272;28;20880;-86
2021/07/24 07:01:14;;;;;;;18.73;14.20;;;25.90;99.90;;;;;;5111947;28;20455;-86
2021/07/24 07:03:40;;;;;;;15.13;13.53;;;26.20;99.90;;;;;;5111637;28;20375;-85
2021/07/24 07:06:06;;;;;;;16.03;13.97;;;26.30;99.90;;;;;;5112218;28;20474;-83
2021/07/24 07:08:35;;;;;;;24.58;15.00;;;26.40;99.90;;;;;;5111839;28;20388;-90
2021/07/24 07:11:03;;;;;;;17.63;14.63;;;26.60;99.90;;;;;;5111839;28;20540;-86
2021/07/24 07:13:29;;;;;;;18.98;14.70;;;26.80;99.90;;;;;;5111322;28;20406;-88
2021/07/24 07:15:54;;;;;;;16.67;13.52;;;27.00;99.90;;;;;;5113135;28;20466;-86
2021/07/24 07:18:21;;;;;;;15.27;13.67;;;27.10;99.90;;;;;;5112847;28;20375;-87
2021/07/24 07:20:47;;;;;;;17.33;14.15;;;27.10;99.90;;;;;;5112101;28;20375;-86
2021/07/24 07:23:12;;;;;;;17.52;14.68;;;27.20;99.90;;;;;;5114336;28;20767;-88
2021/07/24 07:25:38;;;;;;;20.33;14.43;;;27.20;99.90;;;;;;5113943;28;20400;-86
2021/07/24 07:28:04;;;;;;;19.60;14.65;;;27.30;99.90;;;;;;5112318;28;20363;-88
2021/07/24 07:30:30;;;;;;;16.20;14.33;;;27.40;99.90;;;;;;5111584;28;20410;-88
2021/07/24 07:32:55;;;;;;;16.35;14.48;;;27.60;99.90;;;;;;5111671;28;20768;-87
2021/07/24 07:35:21;;;;;;;16.95;15.18;;;27.60;99.90;;;;;;5111058;28;20374;-86
2021/07/24 07:37:49;;;;;;;16.00;14.03;;;27.30;99.90;;;;;;5110329;28;20945;-87
2021/07/24 07:40:14;;;;;;;15.98;13.88;;;27.30;99.90;;;;;;5111772;28;20362;-86
2021/07/24 07:42:40;;;;;;;16.38;14.68;;;27.30;99.90;;;;;;5111670;28;20508;-88
2021/07/24 07:45:06;;;;;;;16.43;13.90;;;27.10;99.90;;;;;;5111029;28;20381;-88
2021/07/24 07:47:31;;;;;;;15.90;14.27;;;27.10;99.90;;;;;;5111291;28;20462;-86
2021/07/24 07:49:57;;;;;;;79.40;19.95;;;27.10;99.90;;;;;;5110642;28;20984;-85
2021/07/24 07:52:24;;;;;;;16.27;14.57;;;27.10;99.90;;;;;;5111211;28;20780;-86
2021/07/24 07:54:49;;;;;;;17.10;15.30;;;27.00;99.90;;;;;;5111103;28;20381;-86
2021/07/24 07:57:15;;;;;;;19.63;15.25;;;27.10;99.90;;;;;;5111225;28;20370;-86
2021/07/24 07:59:51;;;;;;;17.03;14.53;;;27.10;99.90;;;;;;5115833;28;20394;-86
2021/07/24 08:02:16;;;;;;;28.20;16.70;;;27.30;99.90;;;;;;5121649;28;20748;-88
2021/07/24 08:04:42;;;;;;;17.87;14.40;;;27.50;99.90;;;;;;5110991;28;20439;-86
2021/07/24 08:07:08;;;;;;;16.00;14.33;;;27.60;99.90;;;;;;5111251;28;20864;-89
2021/07/24 08:09:33;;;;;;;17.70;14.55;;;27.70;99.90;;;;;;5109875;28;20398;-87
2021/07/24 08:11:59;;;;;;;48.70;18.10;;;27.60;99.80;;;;;;5108413;28;20379;-88
2021/07/24 08:14:25;;;;;;;19.13;14.77;;;27.50;99.80;;;;;;5109994;28;20403;-87
2021/07/24 08:16:50;;;;;;;19.58;15.07;;;27.50;99.90;;;;;;5111434;28;20771;-88
2021/07/24 08:19:17;;;;;;;16.58;14.50;;;27.50;99.40;;;;;;5111245;28;20909;-87
2021/07/24 08:21:43;;;;;;;18.65;15.15;;;27.60;99.90;;;;;;5110132;28;20458;-85
2021/07/24 08:24:08;;;;;;;19.85;15.18;;;27.70;99.90;;;;;;5110225;28;20944;-85
2021/07/24 08:26:34;;;;;;;77.40;20.67;;;28.10;99.40;;;;;;5112211;28;20367;-89
2021/07/24 08:29:00;;;;;;;17.67;15.37;;;28.20;99.40;;;;;;5109959;28;20803;-88
2021/07/24 08:31:25;;;;;;;17.48;15.38;;;28.20;98.60;;;;;;5110177;28;20427;-86
2021/07/24 08:33:51;;;;;;;18.75;15.20;;;28.10;97.90;;;;;;5111512;28;20378;-85
2021/07/24 08:36:19;;;;;;;17.40;15.43;;;28.00;98.60;;;;;;5110255;28;20432;-87
2021/07/24 08:38:47;;;;;;;18.65;15.50;;;27.90;98.80;;;;;;5111887;27;20414;-86
2021/07/24 08:41:16;;;;;;;16.08;14.48;;;27.90;98.10;;;;;;5111245;28;20394;-87
2021/07/24 08:43:45;;;;;;;16.55;14.88;;;28.00;98.90;;;;;;5110717;28;20375;-88
2021/07/24 08:46:12;;;;;;;17.50;14.95;;;28.00;98.30;;;;;;5109151;28;21071;-89
2021/07/24 08:48:38;;;;;;;18.23;14.67;;;28.20;98.00;;;;;;5110912;28;20888;-88
2021/07/24 08:51:05;;;;;;;28.88;15.10;;;28.30;97.70;;;;;;5110195;28;20463;-86
2021/07/24 08:53:34;;;;;;;17.27;15.00;;;28.40;96.50;;;;;;5110014;28;20410;-87
2021/07/24 08:56:02;;;;;;;17.75;15.07;;;28.40;96.90;;;;;;5110263;28;20383;-88
2021/07/24 08:58:29;;;;;;;42.80;17.02;;;28.30;97.20;;;;;;5109523;28;20386;-87
2021/07/24 09:00:57;;;;;;;17.90;14.93;;;28.20;96.90;;;;;;5092357;28;21992;-85
2021/07/24 09:03:25;;;;;;;16.03;14.33;;;28.10;96.20;;;;;;5111160;28;20403;-86
2021/07/24 09:05:53;;;;;;;16.90;14.48;;;28.00;95.90;;;;;;5111011;28;20465;-85
2021/07/24 09:08:22;;;;;;;16.83;15.13;;;28.00;96.20;;;;;;5109666;28;20497;-86
2021/07/24 09:10:50;;;;;;;18.10;15.02;;;28.00;97.00;;;;;;5109870;28;20398;-85
2021/07/24 09:13:17;;;;;;;17.30;15.30;;;28.10;96.00;;;;;;5109833;28;20382;-87
2021/07/24 09:15:44;;;;;;;17.10;15.30;;;28.00;95.80;;;;;;5109819;28;20375;-88
2021/07/24 09:18:11;;;;;;;16.63;14.80;;;28.00;95.80;;;;;;5110225;28;20415;-86
2021/07/24 09:20:37;;;;;;;16.77;15.00;;;28.10;95.60;;;;;;5110193;28;20489;-87
2021/07/24 09:23:24;;;;;;;20.40;15.43;;;28.20;96.20;;;;;;5109326;28;20939;-86
2021/07/24 09:25:50;;;;;;;16.57;14.37;;;28.50;96.10;;;;;;5109218;28;20916;-86
2021/07/24 09:28:16;;;;;;;21.35;14.90;;;28.60;95.60;;;;;;5110134;28;20418;-87
2021/07/24 09:30:44;;;;;;;20.05;15.23;;;28.40;93.90;;;;;;5109884;28;20485;-88
2021/07/24 09:33:14;;;;;;;25.17;15.20;;;28.30;94.90;;;;;;5110538;28;20454;-88
2021/07/24 09:35:42;;;;;;;16.10;14.40;;;28.50;94.60;;;;;;5109523;28;20379;-88
2021/07/24 09:38:16;;;;;;;17.02;13.80;;;28.80;95.30;;;;;;5109526;28;20371;-87
2021/07/24 09:40:44;;;;;;;14.90;13.23;;;28.90;93.70;;;;;;5110103;28;20424;-89
2021/07/24 09:43:28;;;;;;;16.38;14.68;;;28.70;92.30;;;;;;5109013;28;20415;-88
2021/07/24 09:46:07;;;;;;;71.47;19.70;;;31.50;93.80;;;;;;5109846;28;20933;-88
2021/07/24 09:48:33;;;;;;;16.13;13.97;;;28.70;93.40;;;;;;5109597;28;20406;-85
2021/07/24 09:50:58;;;;;;;71.80;18.27;;;28.60;93.20;;;;;;5109229;28;20713;-87
2021/07/24 09:53:35;;;;;;;18.60;14.23;;;28.70;93.50;;;;;;5110546;28;20462;-87
2021/07/24 09:56:00;;;;;;;17.20;14.75;;;28.90;96.40;;;;;;5112714;28;20405;-86
2021/07/24 09:58:27;;;;;;;15.57;13.93;;;28.80;92.50;;;;;;5109374;28;20371;-87
2021/07/24 10:01:06;;;;;;;17.40;14.02;;;28.90;93.00;;;;;;5109335;28;20382;-89
2021/07/24 10:03:35;;;;;;;36.30;15.63;;;28.80;92.30;;;;;;5113025;28;20375;-91
2021/07/24 10:06:08;;;;;;;17.23;13.88;;;29.00;93.50;;;;;;5114432;28;20431;-85
2021/07/24 10:08:36;;;;;;;15.38;13.70;;;29.10;92.10;;;;;;5112480;28;20490;-87
2021/07/24 10:11:02;;;;;;;27.30;14.90;;;29.30;92.80;;;;;;5112858;28;20874;-85
2021/07/24 10:13:28;;;;;;;33.13;14.93;;;29.40;93.30;;;;;;5114969;28;20469;-88
2021/07/24 10:15:55;;;;;;;17.77;13.80;;;29.50;90.70;;;;;;5112891;28;20721;-87
2021/07/24 10:18:22;;;;;;;15.45;13.27;;;29.40;92.30;;;;;;5112836;28;20427;-88
2021/07/24 10:20:50;;;;;;;15.60;14.02;;;29.30;90.80;;;;;;5114869;28;20406;-88
2021/07/24 10:23:23;;;;;;;14.73;13.27;;;29.30;92.20;;;;;;5112802;28;20382;-85
2021/07/24 10:26:30;;;;;;;16.58;13.73;;;29.30;91.40;;;;;;5112730;28;20909;-85
2021/07/24 10:29:03;;;;;;;15.07;13.25;;;29.40;92.50;;;;;;5109754;28;20390;-87
2021/07/24 10:31:33;;;;;;;14.25;12.85;;;29.60;92.80;;;;;;5114273;28;20852;-90
2021/07/24 10:34:01;;;;;;;16.38;13.43;;;;;;;;;;5112575;28;20945;-88
2021/07/24 10:36:38;;;;;;;16.20;13.10;;;29.50;89.50;;;;;;5112695;28;20374;-88
2021/07/24 10:39:19;;;;;;;15.60;13.30;;;29.60;91.10;;;;;;5113674;28;20391;-87
2021/07/24 10:42:07;;;;;;;15.83;13.20;;;29.50;91.00;;;;;;5113552;28;20427;-87
2021/07/24 10:44:38;;;;;;;15.73;14.02;;;29.60;92.00;;;;;;5113397;28;20889;-86
2021/07/24 10:47:08;;;;;;;32.17;14.93;;;29.80;90.00;;;;;;5120316;28;20379;-87
2021/07/24 10:49:34;;;;;;;14.57;13.00;;;29.90;90.90;;;;;;5118176;28;20954;-88
2021/07/24 10:52:00;;;;;;;16.80;13.03;;;29.80;90.00;;;;;;5116434;28;20379;-88
2021/07/24 10:54:27;;;;;;;15.38;13.77;;;29.90;90.40;;;;;;5113583;28;20370;-89
2021/07/24 10:56:53;;;;;;;15.13;13.52;;;29.80;90.60;;;;;;5113434;28;20416;-88
2021/07/24 10:59:26;;;;;;;14.53;13.03;;;29.90;90.50;;;;;;5112172;28;20386;-86
2021/07/24 11:01:53;;;;;;;14.85;13.25;;;29.80;87.90;;;;;;5112719;28;20424;-88
2021/07/24 11:04:41;;;;;;;27.80;14.32;;;29.90;90.40;;;;;;5111509;28;20378;-87
2021/07/24 11:07:13;;;;;;;17.17;14.30;;;29.70;89.70;;;;;;5110773;28;20465;-87
2021/07/24 11:09:45;;;;;;;15.82;13.60;;;29.50;90.00;;;;;;5111022;28;20924;-88
2021/07/24 11:12:15;;;;;;;14.37;12.87;;;29.40;90.20;;;;;;5109714;28;20374;-89
2021/07/24 11:14:41;;;;;;;15.32;13.73;;;29.50;90.10;;;;;;5111466;28;20883;-90
2021/07/24 11:17:07;;;;;;;16.02;13.85;;;29.50;89.30;;;;;;5111343;28;20379;-91
2021/07/24 11:19:51;;;;;;;15.52;14.00;;;29.30;90.20;;;;;;5111969;28;20412;-89
2021/07/24 11:22:24;;;;;;;16.38;13.95;;;29.30;90.80;;;;;;5109705;28;20387;-88
2021/07/24 11:24:50;;;;;;;15.75;13.63;;;29.30;89.10;;;;;;5107067;28;20447;-88
2021/07/24 11:27:27;;;;;;;19.88;14.68;;;29.20;90.10;;;;;;5110899;28;20904;-88
2021/07/24 11:29:55;;;;;;;18.42;14.13;;;29.20;88.80;;;;;;5108582;28;20399;-89
2021/07/24 11:32:40;;;;;;;15.15;13.57;;;29.10;89.40;;;;;;5110647;28;20423;-89
2021/07/24 11:35:10;;;;;;;16.00;13.15;;;29.00;90.00;;;;;;5106802;28;20449;-86
2021/07/24 11:37:40;;;;;;;15.20;13.65;;;28.90;90.20;;;;;;5111204;28;20418;-88
2021/07/24 11:40:11;;;;;;;14.98;13.43;;;29.00;90.50;;;;;;5108377;28;20383;-91
2021/07/24 11:42:39;;;;;;;17.33;13.23;;;29.00;89.70;;;;;;5108879;28;20794;-89
2021/07/24 11:45:05;;;;;;;18.38;13.15;;;29.00;90.30;;;;;;5109648;28;20394;-87
2021/07/24 11:47:31;;;;;;;14.73;13.13;;;29.10;90.10;;;;;;5107351;28;20390;-86
2021/07/24 11:50:19;;;;;;;31.33;13.68;;;29.20;89.70;;;;;;5109942;28;20395;-88
2021/07/24 11:52:52;;;;;;;16.98;13.32;;;29.50;90.60;;;;;;5109094;28;20398;-88
2021/07/24 11:55:30;;;;;;;57.23;17.33;;;29.50;89.90;;;;;;5110167;28;20415;-89
2021/07/24 11:58:03;;;;;;;26.58;14.35;;;29.60;89.50;;;;;;5107677;28;20800;-91
2021/07/24 12:00:30;;;;;;;14.55;13.10;;;29.60;90.10;;;;;;5104295;28;21908;-88
2021/07/24 12:03:19;;;;;;;15.90;13.48;;;29.80;87.60;;;;;;5105248;28;20385;-88
2021/07/24 12:05:59;;;;;;;15.38;13.77;;;29.90;89.30;;;;;;5106259;28;20820;-88
2021/07/24 12:08:26;;;;;;;17.10;13.25;;;29.90;88.00;;;;;;5105482;28;20409;-87
2021/07/24 12:10:53;;;;;;;19.90;13.13;;;30.00;87.60;;;;;;5110379;28;20433;-90
2021/07/24 12:13:24;;;;;;;16.25;14.00;;;30.00;88.80;;;;;;5111176;28;20367;-89
2021/07/24 12:16:06;;;;;;;16.60;13.07;;;30.00;88.70;;;;;;5108389;28;20836;-91
2021/07/24 12:18:45;;;;;;;14.75;13.15;;;30.00;87.10;;;;;;5121920;27;20371;-86
2021/07/24 12:21:11;;;;;;;27.40;13.80;;;30.20;85.10;;;;;;5110233;28;20455;-88
2021/07/24 12:23:43;;;;;;;16.00;12.80;;;30.00;87.30;;;;;;5109729;28;20411;-89
2021/07/24 12:26:12;;;;;;;14.68;12.65;;;30.00;89.00;;;;;;5110121;28;20371;-88
2021/07/24 12:28:42;;;;;;;14.82;13.30;;;30.20;86.50;;;;;;5112027;28;20406;-90
2021/07/24 12:31:22;;;;;;;15.90;13.02;;;30.20;88.00;;;;;;5119541;27;20397;-90
2021/07/24 12:34:00;;;;;;;15.32;12.73;;;30.30;85.90;;;;;;5113026;27;20753;-85